Tessenderlo, Belgium
Current Conditions -  °F | °C
As of 9:10 AM on Tuesday 21 Oct 2014 (Local Time) from EBDT Reporting Station
Light Rain Light Rain  
Wind Chill: 12°   Ceiling: 4000
Heat Index: 12°   Visibility: 2.8mi
Dew Point: 10°   Wind: 13mph
Humidity: 88%   Direction: 200°SSW
Pressure: 29.77"   Gusts: NA
Location:  51.07°N, 5.09°E
Report Text: EBDT 210710Z 20011KT 4500 -RA FEW010 SCT030 BKN040 12/10 Q1008 GRN
Loading
Personal Weather Stations






























Interactive Weather Map
Tropical Storm Tracking
New forecast layout! Learn more

10-Day Weather Forecast

Advertisements
Track Severe Weather on mobile